Time;durP1;ratioP1;P1;durP2;ratioP2;P2;SDS_P1;SDS_P2;PMS_P1;PMS_P2;Temp;Humidity;BMP_temperature;BMP_pressure;BME280_temperature;BME280_humidity;BME280_pressure;Samples;Min_cycle;Max_cycle;Signal;HPM_P1;HPM_P2
2022/10/13 00:01:09;;;;;;;;;;;14.30;99.90;;;;;;5053626;28;19958;-76
2022/10/13 00:03:35;;;;;;;;;;;14.20;99.90;;;;;;5053547;28;19916;-76
2022/10/13 00:06:03;;;;;;;;;;;14.20;99.90;;;;;;5053590;28;19913;-75
2022/10/13 00:08:29;;;;;;;;;;;14.20;99.90;;;;;;5053480;28;20327;-76
2022/10/13 00:10:54;;;;;;;;;;;14.50;99.90;;;;;;5052128;28;19913;-76
2022/10/13 00:13:20;;;;;;;;;;;14.60;99.90;;;;;;5053390;28;19999;-75
2022/10/13 00:15:46;;;;;;;;;;;14.60;99.90;;;;;;5053556;28;19909;-77
2022/10/13 00:18:13;;;;;;;;;;;14.30;99.90;;;;;;5053444;28;19963;-75
2022/10/13 00:20:39;;;;;;;;;;;14.50;99.90;;;;;;5055163;28;19913;-75
2022/10/13 00:23:05;;;;;;;;;;;14.90;99.90;;;;;;5057878;28;19966;-75
2022/10/13 00:25:31;;;;;;;;;;;15.00;99.90;;;;;;5057503;28;19913;-77
2022/10/13 00:27:56;;;;;;;;;;;14.90;99.90;;;;;;5057608;28;19908;-76
2022/10/13 00:30:22;;;;;;;;;;;14.90;99.90;;;;;;5056060;28;20261;-77
2022/10/13 00:32:47;;;;;;;;;;;14.70;99.90;;;;;;5057833;28;19913;-74
2022/10/13 00:35:13;;;;;;;;;;;14.90;99.90;;;;;;5057591;28;19909;-75
2022/10/13 00:37:38;;;;;;;;;;;15.00;99.90;;;;;;5057305;28;20389;-74
2022/10/13 00:40:04;;;;;;;;;;;15.20;99.90;;;;;;5057089;28;19920;-75
2022/10/13 00:42:30;;;;;;;;;;;14.90;99.90;;;;;;5057055;28;19909;-76
2022/10/13 00:44:55;;;;;;;;;;;14.70;99.90;;;;;;5056982;28;19958;-74
2022/10/13 00:47:21;;;;;;;;;;;14.70;99.90;;;;;;5057115;28;19909;-76
2022/10/13 00:49:47;;;;;;;;;;;14.70;99.90;;;;;;5056808;28;19921;-76
2022/10/13 00:52:13;;;;;;;;;;;14.70;99.90;;;;;;5055622;28;19916;-76
2022/10/13 00:54:39;;;;;;;;;;;14.80;99.90;;;;;;5056891;28;19959;-76
2022/10/13 00:57:06;;;;;;;;;;;14.70;99.90;;;;;;5056872;28;19913;-76
2022/10/13 00:59:33;;;;;;;;;;;14.50;99.90;;;;;;5056932;28;20335;-77
2022/10/13 01:01:59;;;;;;;;;;;14.50;99.90;;;;;;5056871;28;19916;-77
2022/10/13 01:04:26;;;;;;;;;;;14.70;99.90;;;;;;5056900;28;19908;-75
2022/10/13 01:06:52;;;;;;;;;;;14.80;99.90;;;;;;5056786;28;19916;-75
2022/10/13 01:09:18;;;;;;;;;;;14.80;99.90;;;;;;5056650;28;19909;-76
2022/10/13 01:12:16;;;;;;;;;;;14.50;99.90;;;;;;5056583;28;20300;-74
2022/10/13 01:14:44;;;;;;;;;;;14.40;99.90;;;;;;5033678;28;19936;-75
2022/10/13 01:17:22;;;;;;;;;;;14.40;99.90;;;;;;5056516;28;19913;-77
2022/10/13 01:19:59;;;;;;;;;;;14.50;99.90;;;;;;5056444;28;19964;-73
2022/10/13 01:22:34;;;;;;;;;;;14.20;99.90;;;;;;5056370;28;19909;-74
2022/10/13 01:24:59;;;;;;;;;;;14.30;99.90;;;;;;5056606;28;20399;-76
2022/10/13 01:27:38;;;;;;;;;;;14.30;99.90;;;;;;5056330;28;19952;-75
2022/10/13 01:30:07;;;;;;;;;;;14.40;99.90;;;;;;5054681;28;19916;-75
2022/10/13 01:32:52;;;;;;;;;;;14.40;99.90;;;;;;5055720;28;20373;-74
2022/10/13 01:35:23;;;;;;;;;;;14.40;99.90;;;;;;5056480;28;19951;-76
2022/10/13 01:37:54;;;;;;;;;;;14.50;99.90;;;;;;5056230;28;19943;-77
2022/10/13 01:40:23;;;;;;;;;;;14.40;99.90;;;;;;5056046;28;20055;-74
2022/10/13 01:43:02;;;;;;;;;;;14.50;99.90;;;;;;5054813;28;20281;-76
2022/10/13 01:45:30;;;;;;;;;;;14.20;99.90;;;;;;5056612;28;19913;-76
2022/10/13 01:47:57;;;;;;;;;;;14.20;99.90;;;;;;5055984;28;19931;-76
2022/10/13 01:50:22;;;;;;;;;;;14.20;99.90;;;;;;5055535;28;19921;-76
2022/10/13 01:52:49;;;;;;;;;;;14.20;99.90;;;;;;5055850;28;20308;-76
2022/10/13 01:55:14;;;;;;;;;;;14.10;99.90;;;;;;5056248;28;20384;-76
2022/10/13 01:57:42;;;;;;;;;;;14.20;99.90;;;;;;5055710;28;19976;-76
2022/10/13 02:00:08;;;;;;;;;;;14.10;99.90;;;;;;5055699;28;19917;-75
2022/10/13 02:02:37;;;;;;;;;;;14.10;99.90;;;;;;5055620;28;19909;-78
2022/10/13 02:05:09;;;;;;;;;;;14.20;99.90;;;;;;5055602;28;20361;-77
2022/10/13 02:07:43;;;;;;;;;;;14.30;99.90;;;;;;5055537;28;20373;-77
2022/10/13 02:10:27;;;;;;;;;;;14.20;99.90;;;;;;5055637;28;19996;-76
2022/10/13 02:12:56;;;;;;;;;;;14.00;99.90;;;;;;5055434;28;20373;-77
2022/10/13 02:15:25;;;;;;;;;;;14.00;99.90;;;;;;5055916;28;19909;-76
2022/10/13 02:17:51;;;;;;;;;;;14.00;99.90;;;;;;5055706;28;19915;-75
2022/10/13 02:20:18;;;;;;;;;;;13.90;99.90;;;;;;5055367;28;20015;-76
2022/10/13 02:22:44;;;;;;;;;;;13.80;99.90;;;;;;5055341;28;19954;-76
2022/10/13 02:25:10;;;;;;;;;;;13.80;99.90;;;;;;5053887;28;20368;-78
2022/10/13 02:27:36;;;;;;;;;;;13.80;99.90;;;;;;5055180;28;19909;-76
2022/10/13 02:30:02;;;;;;;;;;;13.90;99.90;;;;;;5055070;28;19947;-75
2022/10/13 02:32:28;;;;;;;;;;;13.90;99.90;;;;;;5055602;28;19912;-75
2022/10/13 02:34:53;;;;;;;;;;;13.80;99.90;;;;;;5055043;28;19916;-76
2022/10/13 02:37:19;;;;;;;;;;;13.90;99.90;;;;;;5054944;28;19909;-75
2022/10/13 02:39:44;;;;;;;;;;;13.90;99.90;;;;;;5054999;28;20011;-75
2022/10/13 02:42:10;;;;;;;;;;;13.90;99.90;;;;;;5054597;28;20019;-73
2022/10/13 02:44:35;;;;;;;;;;;14.00;99.90;;;;;;5054716;28;19908;-75
2022/10/13 02:47:01;;;;;;;;;;;14.00;99.90;;;;;;5054976;28;19916;-75
2022/10/13 02:49:27;;;;;;;;;;;13.90;99.90;;;;;;5054653;28;19924;-76
2022/10/13 02:51:53;;;;;;;;;;;13.80;99.90;;;;;;5054695;28;20423;-76
2022/10/13 02:54:19;;;;;;;;;;;13.80;99.90;;;;;;5053322;28;20385;-77
2022/10/13 02:56:45;;;;;;;;;;;13.80;99.90;;;;;;5054579;28;19915;-76
2022/10/13 02:59:10;;;;;;;;;;;13.70;99.90;;;;;;5054450;28;20289;-75
2022/10/13 03:01:40;;;;;;;;;;;13.70;99.90;;;;;;5054782;28;19958;-75
2022/10/13 03:04:06;;;;;;;;;;;13.70;99.90;;;;;;5054434;28;19916;-76
2022/10/13 03:06:31;;;;;;;;;;;13.80;99.90;;;;;;5054429;28;19916;-74
2022/10/13 03:08:58;;;;;;;;;;;13.80;99.90;;;;;;5054360;28;19913;-74
2022/10/13 03:11:23;;;;;;;;;;;13.80;99.90;;;;;;5054283;28;19915;-75
2022/10/13 03:13:49;;;;;;;;;;;13.90;99.90;;;;;;5054296;28;19909;-76
2022/10/13 03:16:14;;;;;;;;;;;14.00;99.90;;;;;;5054265;28;19915;-75
2022/10/13 03:18:40;;;;;;;;;;;14.00;99.90;;;;;;5054088;28;19916;-74
2022/10/13 03:21:06;;;;;;;;;;;14.10;99.90;;;;;;5054513;28;19991;-75
2022/10/13 03:23:32;;;;;;;;;;;14.00;99.90;;;;;;5054201;28;19915;-76
2022/10/13 03:25:57;;;;;;;;;;;14.10;99.90;;;;;;5054143;28;20003;-76
2022/10/13 03:28:23;;;;;;;;;;;14.10;99.90;;;;;;5054055;28;20330;-74
2022/10/13 03:30:49;;;;;;;;;;;14.10;99.90;;;;;;5053748;28;20266;-75
2022/10/13 03:33:14;;;;;;;;;;;14.20;99.90;;;;;;5054688;28;19935;-77
2022/10/13 03:35:40;;;;;;;;;;;14.10;99.90;;;;;;5054210;28;19909;-76
2022/10/13 03:38:06;;;;;;;;;;;14.10;99.90;;;;;;5053889;28;19916;-75
2022/10/13 03:40:31;;;;;;;;;;;14.10;99.90;;;;;;5053759;28;19912;-76
2022/10/13 03:42:57;;;;;;;;;;;14.20;99.90;;;;;;5052471;28;20419;-77
2022/10/13 03:45:23;;;;;;;;;;;14.10;99.90;;;;;;5052354;28;19960;-77
2022/10/13 03:47:48;;;;;;;;;;;14.30;99.90;;;;;;5053725;28;19909;-78
2022/10/13 03:50:14;;;;;;;;;;;14.20;99.90;;;;;;5053238;28;20016;-77
2022/10/13 03:52:40;;;;;;;;;;;14.20;99.90;;;;;;5053681;28;19908;-76
2022/10/13 03:55:05;;;;;;;;;;;14.20;99.90;;;;;;5053042;28;19909;-77
2022/10/13 03:57:31;;;;;;;;;;;14.20;99.90;;;;;;5053596;28;19916;-75
2022/10/13 03:59:57;;;;;;;;;;;14.20;99.90;;;;;;5053489;28;19966;-74
2022/10/13 04:02:22;;;;;;;;;;;14.20;99.90;;;;;;5053555;28;20262;-77
2022/10/13 04:04:49;;;;;;;;;;;14.20;99.90;;;;;;5053537;28;19909;-76
2022/10/13 04:07:14;;;;;;;;;;;14.20;99.90;;;;;;5053504;28;20285;-76
2022/10/13 04:09:40;;;;;;;;;;;14.20;99.90;;;;;;5053450;28;19909;-77
2022/10/13 04:12:06;;;;;;;;;;;14.20;99.90;;;;;;5053434;28;19909;-76
2022/10/13 04:14:31;;;;;;;;;;;14.30;99.90;;;;;;5052122;28;20388;-75
2022/10/13 04:16:57;;;;;;;;;;;14.30;99.90;;;;;;5053386;28;20008;-77
2022/10/13 04:19:24;;;;;;;;;;;14.40;99.90;;;;;;5053437;28;19962;-75
2022/10/13 04:21:50;;;;;;;;;;;14.40;99.90;;;;;;5053400;28;19916;-77
2022/10/13 04:24:16;;;;;;;;;;;14.40;99.90;;;;;;5053336;28;20297;-75
2022/10/13 04:26:43;;;;;;;;;;;14.40;99.90;;;;;;5053290;28;19944;-76
2022/10/13 04:29:10;;;;;;;;;;;14.50;99.90;;;;;;5053558;28;19908;-76
2022/10/13 04:31:35;;;;;;;;;;;14.60;99.90;;;;;;5053738;28;19962;-75
2022/10/13 04:34:01;;;;;;;;;;;14.50;99.90;;;;;;5053229;28;19908;-76
2022/10/13 04:36:27;;;;;;;;;;;14.50;99.90;;;;;;5053700;28;19916;-75
2022/10/13 04:38:53;;;;;;;;;;;14.50;99.90;;;;;;5053063;28;19912;-75
2022/10/13 04:41:19;;;;;;;;;;;14.50;99.90;;;;;;5053179;28;20040;-77
2022/10/13 04:43:48;;;;;;;;;;;14.40;99.90;;;;;;5053175;28;19909;-77
2022/10/13 04:46:16;;;;;;;;;;;14.50;99.90;;;;;;5053012;28;19915;-76
2022/10/13 04:48:42;;;;;;;;;;;14.50;99.90;;;;;;5053246;28;19916;-74
2022/10/13 04:51:09;;;;;;;;;;;14.50;99.90;;;;;;5053138;28;19920;-75
2022/10/13 04:53:34;;;;;;;;;;;14.60;99.90;;;;;;5053030;28;20000;-77
2022/10/13 04:56:02;;;;;;;;;;;14.60;99.90;;;;;;5052980;28;20056;-74
2022/10/13 04:58:28;;;;;;;;;;;14.60;99.90;;;;;;5053076;28;19913;-77
2022/10/13 05:00:53;;;;;;;;;;;14.60;99.90;;;;;;5053090;28;19909;-77
2022/10/13 05:03:19;;;;;;;;;;;14.60;99.90;;;;;;5053001;28;19966;-75
2022/10/13 05:05:44;;;;;;;;;;;14.70;99.90;;;;;;5053090;28;19913;-77
2022/10/13 05:08:10;;;;;;;;;;;14.70;99.90;;;;;;5056689;28;19919;-76
2022/10/13 05:10:36;;;;;;;;;;;14.70;99.90;;;;;;5056800;28;19909;-76
2022/10/13 05:13:01;;;;;;;;;;;14.80;99.90;;;;;;5056578;28;19908;-76
2022/10/13 05:15:27;;;;;;;;;;;14.80;99.90;;;;;;5056587;28;19999;-76
2022/10/13 05:17:53;;;;;;;;;;;14.90;99.90;;;;;;5055208;28;20384;-78
2022/10/13 05:20:18;;;;;;;;;;;14.90;99.90;;;;;;5056330;28;19913;-76
2022/10/13 05:22:44;;;;;;;;;;;15.00;99.90;;;;;;5056413;28;19909;-78
2022/10/13 05:25:09;;;;;;;;;;;14.90;99.90;;;;;;5056381;28;19920;-77
2022/10/13 05:27:35;;;;;;;;;;;14.80;99.90;;;;;;5056288;28;20323;-76
2022/10/13 05:30:00;;;;;;;;;;;14.80;99.90;;;;;;5056531;28;19909;-75
2022/10/13 05:32:26;;;;;;;;;;;14.90;99.90;;;;;;5056749;28;19908;-76
2022/10/13 05:34:52;;;;;;;;;;;14.90;99.90;;;;;;5056170;28;19908;-75
2022/10/13 05:37:17;;;;;;;;;;;15.00;99.90;;;;;;5056099;28;19913;-75
2022/10/13 05:39:43;;;;;;;;;;;14.90;99.90;;;;;;5056415;28;19913;-78
2022/10/13 05:42:09;;;;;;;;;;;14.90;99.90;;;;;;5056090;28;19955;-77
2022/10/13 05:44:36;;;;;;;;;;;14.90;99.90;;;;;;5056137;28;20329;-77
2022/10/13 05:47:02;;;;;;;;;;;14.90;99.90;;;;;;5055981;28;19959;-76
2022/10/13 05:49:28;;;;;;;;;;;14.90;99.90;;;;;;5055619;28;19978;-76
2022/10/13 05:51:56;;;;;;;;;;;14.90;99.90;;;;;;5056180;28;19908;-77
2022/10/13 05:54:24;;;;;;;;;;;14.90;99.90;;;;;;5055945;28;19909;-75
2022/10/13 05:57:09;;;;;;;;;;;15.00;99.90;;;;;;5055823;28;19912;-74
2022/10/13 05:59:40;;;;;;;;;;;15.00;99.90;;;;;;5055201;28;19920;-76
2022/10/13 06:02:07;;;;;;;;;;;15.00;99.90;;;;;;5055407;28;19909;-77
2022/10/13 06:04:39;;;;;;;;;;;15.00;99.90;;;;;;5055555;28;19967;-77
2022/10/13 06:07:05;;;;;;;;;;;15.10;99.90;;;;;;5055553;28;19954;-75
2022/10/13 06:09:33;;;;;;;;;;;15.20;99.90;;;;;;5054251;28;19913;-76
2022/10/13 06:11:59;;;;;;;;;;;15.10;99.90;;;;;;5055461;28;20401;-75
2022/10/13 06:14:24;;;;;;;;;;;15.10;99.90;;;;;;5055428;28;19951;-76
2022/10/13 06:16:50;;;;;;;;;;;15.20;99.90;;;;;;5054772;28;19943;-77
2022/10/13 06:19:15;;;;;;;;;;;15.30;99.90;;;;;;5053938;28;19920;-74
2022/10/13 06:21:41;;;;;;;;;;;15.30;99.90;;;;;;5055312;28;19908;-77
2022/10/13 06:24:06;;;;;;;;;;;15.30;99.90;;;;;;5055234;28;19909;-76
2022/10/13 06:26:32;;;;;;;;;;;15.30;99.90;;;;;;5055273;28;19948;-77
2022/10/13 06:28:57;;;;;;;;;;;15.30;99.90;;;;;;5055172;28;20335;-77
2022/10/13 06:31:23;;;;;;;;;;;15.40;99.90;;;;;;5055100;28;19916;-76
2022/10/13 06:33:49;;;;;;;;;;;15.40;99.90;;;;;;5055584;28;20258;-74
2022/10/13 06:36:14;;;;;;;;;;;15.40;99.90;;;;;;5055095;28;19951;-75
2022/10/13 06:38:40;;;;;;;;;;;15.50;99.90;;;;;;5054950;28;19915;-77
2022/10/13 06:41:05;;;;;;;;;;;15.60;99.90;;;;;;5054982;28;19909;-75
2022/10/13 06:43:31;;;;;;;;;;;15.60;99.90;;;;;;5055322;28;19954;-75
2022/10/13 06:45:58;;;;;;;;;;;15.70;99.90;;;;;;5054753;28;19916;-75
2022/10/13 06:48:24;;;;;;;;;;;15.80;99.90;;;;;;5054547;28;19921;-75
2022/10/13 06:50:49;;;;;;;;;;;15.80;99.90;;;;;;5054829;28;19911;-74
2022/10/13 06:53:15;;;;;;;;;;;15.70;99.90;;;;;;5054672;28;19912;-77
2022/10/13 06:55:42;;;;;;;;;;;15.80;99.90;;;;;;5054653;28;19915;-75
2022/10/13 06:58:08;;;;;;;;;;;15.80;99.90;;;;;;5054586;28;20373;-75
2022/10/13 07:00:34;;;;;;;;;;;15.80;99.90;;;;;;5054433;28;19920;-75
2022/10/13 07:02:59;;;;;;;;;;;15.90;99.90;;;;;;5054493;28;19913;-75
2022/10/13 07:05:25;;;;;;;;;;;16.00;99.90;;;;;;5054432;28;19916;-74
2022/10/13 07:07:52;;;;;;;;;;;16.00;99.90;;;;;;5054960;28;19974;-75
2022/10/13 07:10:18;;;;;;;;;;;16.10;99.90;;;;;;5054322;28;20351;-77
2022/10/13 07:12:43;;;;;;;;;;;16.10;99.90;;;;;;5054330;28;19959;-76
2022/10/13 07:15:09;;;;;;;;;;;16.10;99.90;;;;;;5054303;28;20290;-77
2022/10/13 07:17:36;;;;;;;;;;;16.10;99.90;;;;;;5054294;28;20285;-76
2022/10/13 07:20:03;;;;;;;;;;;16.20;99.90;;;;;;5054237;28;19970;-75
2022/10/13 07:22:30;;;;;;;;;;;16.20;99.90;;;;;;5054363;28;20045;-75
2022/10/13 07:24:56;;;;;;;;;;;16.20;99.90;;;;;;5054084;28;19939;-75
2022/10/13 07:27:22;;;;;;;;;;;16.30;99.90;;;;;;5054073;28;19919;-76
2022/10/13 07:29:51;;;;;;;;;;;16.30;99.90;;;;;;5053123;28;19913;-76
2022/10/13 07:32:17;;;;;;;;;;;16.40;99.90;;;;;;5054511;28;19908;-76
2022/10/13 07:34:42;;;;;;;;;;;16.40;99.90;;;;;;5053959;28;19909;-77
2022/10/13 07:37:08;;;;;;;;;;;16.40;99.90;;;;;;5053958;28;19982;-75
2022/10/13 07:39:33;;;;;;;;;;;16.50;99.90;;;;;;5053846;28;20003;-76
2022/10/13 07:41:59;;;;;;;;;;;16.50;99.90;;;;;;5053787;28;19944;-76
2022/10/13 07:44:25;;;;;;;;;;;16.50;99.90;;;;;;5053740;28;20400;-77
2022/10/13 07:46:50;;;;;;;;;;;16.50;99.90;;;;;;5054188;28;19909;-77
2022/10/13 07:49:16;;;;;;;;;;;16.60;99.90;;;;;;5053524;28;20361;-75
2022/10/13 07:51:42;;;;;;;;;;;16.60;99.90;;;;;;5053889;28;19915;-77
2022/10/13 07:54:07;;;;;;;;;;;16.60;99.90;;;;;;5053725;28;19913;-75
2022/10/13 07:56:33;;;;;;;;;;;16.70;99.90;;;;;;5053588;28;19915;-76
2022/10/13 07:59:00;;;;;;;;;;;16.70;99.90;;;;;;5053731;28;19920;-74
2022/10/13 08:01:26;;;;;;;;;;;16.60;99.90;;;;;;5053586;28;19948;-76
2022/10/13 08:03:53;;;;;;;;;;;16.70;99.90;;;;;;5053515;28;19946;-75
2022/10/13 08:06:19;;;;;;;;;;;16.90;99.90;;;;;;5053498;28;19915;-75
2022/10/13 08:08:44;;;;;;;;;;;16.80;99.90;;;;;;5053712;28;19908;-75
2022/10/13 08:11:11;;;;;;;;;;;16.80;99.90;;;;;;5053472;28;19913;-76
2022/10/13 08:13:37;;;;;;;;;;;16.60;99.90;;;;;;5053440;28;19909;-75
2022/10/13 08:16:03;;;;;;;;;;;16.60;99.90;;;;;;5053415;28;20411;-75
2022/10/13 08:18:29;;;;;;;;;;;16.50;99.90;;;;;;5053309;28;20003;-74
2022/10/13 08:20:54;;;;;;;;;;;16.40;99.90;;;;;;5053296;28;19916;-74
2022/10/13 08:23:20;;;;;;;;;;;16.40;99.90;;;;;;5053430;28;19909;-75
2022/10/13 08:25:46;;;;;;;;;;;16.40;99.90;;;;;;5053449;28;19948;-76
2022/10/13 08:28:19;;;;;;;;;;;16.50;99.90;;;;;;5053706;28;20277;-75
2022/10/13 08:30:45;;;;;;;;;;;16.60;99.90;;;;;;5053472;28;20282;-76
2022/10/13 08:33:10;;;;;;;;;;;16.50;99.90;;;;;;5053941;28;19913;-76
2022/10/13 08:35:36;;;;;;;;;;;16.50;99.90;;;;;;5053191;28;19916;-76
2022/10/13 08:38:02;;;;;;;;;;;16.50;99.90;;;;;;5053337;28;19909;-78
2022/10/13 08:40:28;;;;;;;;;;;16.40;99.90;;;;;;5054164;28;19917;-76
2022/10/13 08:42:53;;;;;;;;;;;16.50;99.90;;;;;;5057179;28;19909;-75
2022/10/13 08:45:22;;;;;;;;;;;16.50;99.90;;;;;;5057023;28;19986;-76
2022/10/13 08:47:50;;;;;;;;;;;16.60;99.90;;;;;;5057316;28;19943;-77
2022/10/13 08:50:21;;;;;;;;;;;16.70;99.90;;;;;;5056579;28;20408;-78
2022/10/13 08:52:47;;;;;;;;;;;16.70;99.90;;;;;;5056981;28;19939;-77
2022/10/13 08:55:19;;;;;;;;;;;16.80;99.90;;;;;;5056967;28;19955;-74
2022/10/13 08:57:45;;;;;;;;;;;16.70;99.90;;;;;;5056842;28;19991;-77
2022/10/13 09:00:11;;;;;;;;;;;16.80;99.90;;;;;;5056935;28;20416;-77
2022/10/13 09:02:37;;;;;;;;;;;17.00;99.90;;;;;;5056789;28;19913;-75
2022/10/13 09:05:08;;;;;;;;;;;17.00;99.90;;;;;;5056777;28;19909;-76
2022/10/13 09:07:35;;;;;;;;;;;17.10;99.90;;;;;;5057174;28;19935;-77
2022/10/13 09:10:02;;;;;;;;;;;17.20;99.90;;;;;;5056653;28;20373;-75
2022/10/13 09:12:28;;;;;;;;;;;17.20;99.90;;;;;;5056685;28;19908;-75
2022/10/13 09:15:04;;;;;;;;;;;17.30;99.90;;;;;;5056825;28;20361;-74
2022/10/13 09:17:30;;;;;;;;;;;17.30;99.90;;;;;;5056573;28;19916;-77
2022/10/13 09:20:16;;;;;;;;;;;17.20;99.90;;;;;;5056590;28;19913;-77
2022/10/13 09:22:41;;;;;;;;;;;17.20;99.90;;;;;;5049120;28;19909;-76
2022/10/13 09:25:07;;;;;;;;;;;17.30;99.90;;;;;;5056443;28;19934;-77
2022/10/13 09:27:44;;;;;;;;;;;17.30;99.90;;;;;;5056391;28;20365;-76
2022/10/13 09:30:25;;;;;;;;;;;17.30;99.90;;;;;;5056289;28;19912;-74
2022/10/13 09:32:57;;;;;;;;;;;17.40;99.90;;;;;;5056813;28;19909;-74
2022/10/13 09:35:23;;;;;;;;;;;17.40;99.90;;;;;;5056255;28;20365;-76
2022/10/13 09:38:02;;;;;;;;;;;17.30;99.90;;;;;;5056426;28;19930;-75
2022/10/13 09:40:31;;;;;;;;;;;17.20;99.90;;;;;;5056203;28;20388;-76
2022/10/13 09:42:57;;;;;;;;;;;17.20;99.90;;;;;;5056057;28;19908;-78
2022/10/13 09:45:24;;;;;;;;;;;17.00;99.90;;;;;;5055844;28;19909;-74
2022/10/13 09:47:52;;;;;;;;;;;17.10;99.90;;;;;;5055929;28;19912;-77
2022/10/13 09:50:28;;;;;;;;;;;17.20;99.90;;;;;;5054195;28;20418;-75
2022/10/13 09:53:10;;;;;;;;;;;17.30;99.90;;;;;;5053999;28;21319;-74
2022/10/13 09:55:36;;;;;;;;;;;17.40;99.90;;;;;;5056063;28;19915;-75
2022/10/13 09:58:07;;;;;;;;;;;17.40;99.90;;;;;;5056060;28;20347;-76
2022/10/13 10:00:34;;;;;;;;;;;17.60;99.90;;;;;;5055926;28;19913;-75
2022/10/13 10:03:21;;;;;;;;;;;17.70;99.90;;;;;;5055813;28;19915;-77
2022/10/13 10:05:52;;;;;;;;;;;17.60;99.90;;;;;;5055799;28;20365;-77
2022/10/13 10:08:20;;;;;;;;;;;17.50;99.90;;;;;;5055658;28;19913;-75
2022/10/13 10:10:46;;;;;;;;;;;17.40;99.90;;;;;;5055546;28;19958;-77
2022/10/13 10:13:13;;;;;;;;;;;17.30;99.90;;;;;;5055715;28;19909;-77
2022/10/13 10:15:50;;;;;;;;;;;17.20;99.90;;;;;;5055658;28;19951;-77
2022/10/13 10:18:26;;;;;;;;;;;17.00;99.90;;;;;;5055537;28;19908;-77
2022/10/13 10:21:02;;;;;;;;;;;16.90;99.90;;;;;;5055273;28;19913;-76
2022/10/13 10:23:34;;;;;;;;;;;16.80;99.90;;;;;;5055621;28;20289;-77
2022/10/13 10:26:09;;;;;;;;;;;16.80;99.90;;;;;;5055599;28;19909;-76
2022/10/13 10:28:37;;;;;;;;;;;16.80;99.90;;;;;;5055234;28;19913;-75
2022/10/13 10:31:08;;;;;;;;;;;16.70;99.90;;;;;;5055145;28;19909;-76
2022/10/13 10:33:34;;;;;;;;;;;16.80;99.90;;;;;;5054190;28;19958;-76
2022/10/13 10:36:00;;;;;;;;;;;16.90;99.90;;;;;;5055045;28;19912;-76
2022/10/13 10:38:33;;;;;;;;;;;17.20;99.90;;;;;;5055061;28;19909;-77
2022/10/13 10:40:58;;;;;;;;;;;17.30;99.90;;;;;;5054911;28;19916;-77
2022/10/13 10:43:39;;;;;;;;;;;17.20;99.90;;;;;;5053603;28;20288;-76
2022/10/13 10:46:11;;;;;;;;;;;17.20;99.90;;;;;;5053493;28;19916;-77
2022/10/13 10:48:38;;;;;;;;;;;17.30;99.90;;;;;;5054721;28;19916;-77
2022/10/13 10:51:07;;;;;;;;;;;17.30;99.90;;;;;;5054790;28;19995;-77
2022/10/13 10:53:44;;;;;;;;;;;17.40;99.90;;;;;;5054701;28;19909;-77
2022/10/13 10:56:28;;;;;;;;;;;17.50;99.90;;;;;;5054925;28;19920;-76
2022/10/13 10:59:12;;;;;;;;;;;17.50;99.90;;;;;;5054553;28;19909;-77
2022/10/13 11:01:37;;;;;;;;;;;17.40;99.90;;;;;;5054488;28;19908;-77
2022/10/13 11:04:03;;;;;;;;;;;17.20;99.90;;;;;;5053056;28;19916;-77
2022/10/13 11:06:35;;;;;;;;;;;17.10;99.90;;;;;;5054584;28;19916;-77
2022/10/13 11:09:01;;;;;;;;;;;17.00;99.90;;;;;;5054429;28;20288;-77
2022/10/13 11:11:30;;;;;;;;;;;17.00;99.90;;;;;;5054224;28;20270;-77
2022/10/13 11:14:01;;;;;;;;;;;16.90;99.90;;;;;;5054304;28;19912;-77
2022/10/13 11:16:27;;;;;;;;;;;16.90;99.90;;;;;;5054399;28;19909;-78
2022/10/13 11:19:04;;;;;;;;;;;16.80;99.90;;;;;;5052886;28;19963;-78
2022/10/13 11:21:48;;;;;;;;;;;16.80;99.90;;;;;;5054211;28;19935;-77
2022/10/13 11:24:46;;;;;;;;;;;16.90;99.90;;;;;;5054280;28;19908;-77
2022/10/13 11:27:15;;;;;;;;;;;17.00;99.90;;;;;;5031422;28;19915;-77
2022/10/13 11:29:51;;;;;;;;;;;16.90;99.90;;;;;;5054081;28;19915;-75
2022/10/13 11:32:26;;;;;;;;;;;17.00;99.90;;;;;;5052431;28;19916;-75
2022/10/13 11:34:57;;;;;;;;;;;16.90;99.90;;;;;;5054596;28;19916;-78
2022/10/13 11:37:24;;;;;;;;;;;16.80;99.90;;;;;;5053925;28;19916;-76
2022/10/13 11:40:03;;;;;;;;;;;16.80;99.90;;;;;;5053777;28;20230;-76
2022/10/13 11:42:35;;;;;;;;;;;16.70;99.90;;;;;;5053775;28;20005;-75
2022/10/13 11:45:02;;;;;;;;;;;16.70;99.90;;;;;;5053933;28;19915;-77
2022/10/13 11:47:40;;;;;;;;;;;16.60;99.90;;;;;;5053789;28;19974;-76
2022/10/13 11:50:13;;;;;;;;;;;16.70;99.90;;;;;;5053282;28;20396;-78
2022/10/13 11:52:45;;;;;;;;;;;16.80;99.90;;;;;;5053944;28;20015;-75
2022/10/13 11:55:13;;;;;;;;;;;16.80;99.90;;;;;;5052197;28;19912;-76
2022/10/13 11:57:38;;;;;;;;;;;16.90;99.90;;;;;;5053799;28;19920;-74
2022/10/13 12:00:11;;;;;;;;;;;17.00;99.90;;;;;;5053709;28;19912;-76
2022/10/13 12:02:46;;;;;;;;;;;17.00;99.90;;;;;;5053556;28;19935;-76
2022/10/13 12:05:22;;;;;;;;;;;17.00;99.90;;;;;;5053701;28;20292;-76
2022/10/13 12:07:49;;;;;;;;;;;17.00;99.90;;;;;;5053509;28;19908;-76
2022/10/13 12:10:22;;;;;;;;;;;17.20;99.90;;;;;;5053476;28;19959;-77
2022/10/13 12:12:48;;;;;;;;;;;17.20;99.90;;;;;;5053636;28;19952;-75
2022/10/13 12:15:32;;;;;;;;;;;17.10;99.90;;;;;;5052989;28;19996;-76
2022/10/13 12:18:07;;;;;;;;;;;17.20;99.90;;;;;;5053448;28;19919;-77
2022/10/13 12:20:33;;;;;;;;;;;17.30;99.90;;;;;;5053745;28;19919;-78
2022/10/13 12:22:58;;;;;;;;;;;17.30;99.90;;;;;;5053678;28;19912;-76
2022/10/13 12:25:28;;;;;;;;;;;17.50;99.90;;;;;;5053452;28;19931;-77
2022/10/13 12:27:55;;;;;;;;;;;17.50;99.90;;;;;;5053320;28;20369;-78
2022/10/13 12:30:34;;;;;;;;;;;17.40;99.90;;;;;;5053251;28;19916;-75
2022/10/13 12:33:00;;;;;;;;;;;17.30;99.90;;;;;;5054022;28;19924;-75
2022/10/13 12:35:27;;;;;;;;;;;17.20;99.90;;;;;;5053515;28;19909;-78
2022/10/13 12:37:54;;;;;;;;;;;17.20;99.90;;;;;;5053293;28;19915;-77
2022/10/13 12:40:20;;;;;;;;;;;17.20;99.90;;;;;;5053187;28;19920;-77
2022/10/13 12:42:47;;;;;;;;;;;17.20;99.90;;;;;;5053205;28;20007;-76
2022/10/13 12:45:14;;;;;;;;;;;17.20;99.90;;;;;;5053296;28;19944;-76
2022/10/13 12:47:43;;;;;;;;;;;16.90;99.90;;;;;;5051716;28;19915;-75
2022/10/13 12:50:24;;;;;;;;;;;16.90;99.90;;;;;;5052656;28;20389;-74
2022/10/13 12:52:51;;;;;;;;;;;16.90;99.90;;;;;;5053083;28;19909;-76
2022/10/13 12:55:18;;;;;;;;;;;17.00;99.90;;;;;;5053089;28;19917;-76
2022/10/13 12:57:48;;;;;;;;;;;17.20;99.90;;;;;;5053028;28;19912;-76
2022/10/13 13:00:25;;;;;;;;;;;17.20;99.90;;;;;;5052960;28;19966;-77
2022/10/13 13:02:51;;;;;;;;;;;17.20;99.90;;;;;;5053066;28;20369;-76
2022/10/13 13:05:35;;;;;;;;;;;17.30;99.90;;;;;;5052984;28;20365;-75
2022/10/13 13:08:02;;;;;;;;;;;17.60;99.90;;;;;;5052905;28;19916;-76
2022/10/13 13:10:27;;;;;;;;;;;17.60;99.90;;;;;;5053373;28;20452;-77
2022/10/13 13:12:53;;;;;;;;;;;17.60;99.90;;;;;;5053095;28;20003;-76
2022/10/13 13:15:35;;;;;;;;;;;17.80;99.90;;;;;;5053070;28;19908;-75
2022/10/13 13:18:27;;;;;;;;;;;17.80;99.90;;;;;;5052847;28;19915;-77
2022/10/13 13:20:53;;;;;;;;;;;17.80;99.90;;;;;;5036717;28;20393;-75
2022/10/13 13:23:19;;;;;;;;;;;17.90;99.90;;;;;;5052806;28;19913;-76
2022/10/13 13:25:45;;;;;;;;;;;18.10;99.90;;;;;;5052861;28;19995;-75
2022/10/13 13:28:12;;;;;;;;;;;18.10;99.90;;;;;;5054827;28;19913;-75
2022/10/13 13:30:38;;;;;;;;;;;18.20;99.90;;;;;;5056493;28;20392;-77
2022/10/13 13:33:09;;;;;;;;;;;18.30;99.90;;;;;;5054949;28;20007;-77
2022/10/13 13:35:36;;;;;;;;;;;18.20;99.90;;;;;;5054912;28;20327;-76
2022/10/13 13:38:03;;;;;;;;;;;18.30;99.90;;;;;;5056140;28;20266;-76
2022/10/13 13:40:33;;;;;;;;;;;18.30;99.90;;;;;;5056068;28;19917;-75
2022/10/13 13:42:59;;;;;;;;;;;18.40;99.90;;;;;;5056253;28;19920;-77
2022/10/13 13:45:25;;;;;;;;;;;18.70;99.90;;;;;;5055950;28;19908;-76
2022/10/13 13:47:54;;;;;;;;;;;19.20;99.90;;;;;;5056123;28;20289;-77
2022/10/13 13:50:20;;;;;;;;;;;19.60;99.90;;;;;;5055444;28;19972;-77
2022/10/13 13:52:46;;;;;;;;;;;19.70;99.90;;;;;;5056165;28;19909;-76
2022/10/13 13:55:12;;;;;;;;;;;19.50;99.90;;;;;;5055852;28;19909;-76
2022/10/13 13:57:37;;;;;;;;;;;19.40;99.90;;;;;;5055847;28;19909;-76
2022/10/13 14:00:03;;;;;;;;;;;19.00;99.90;;;;;;5055719;28;19963;-78
2022/10/13 14:02:29;;;;;;;;;;;19.10;99.90;;;;;;5055727;28;19912;-77
2022/10/13 14:04:54;;;;;;;;;;;19.10;99.90;;;;;;5056053;28;19932;-77
2022/10/13 14:07:20;;;;;;;;;;;18.80;99.90;;;;;;5055769;28;20019;-77
2022/10/13 14:09:46;;;;;;;;;;;18.60;99.90;;;;;;5055631;28;19909;-77
2022/10/13 14:12:11;;;;;;;;;;;18.70;99.90;;;;;;5055569;28;19909;-76
2022/10/13 14:14:37;;;;;;;;;;;18.80;99.90;;;;;;5055438;28;19909;-77
2022/10/13 14:17:03;;;;;;;;;;;18.90;99.90;;;;;;5055665;28;20353;-77
2022/10/13 14:19:29;;;;;;;;;;;18.90;99.90;;;;;;5055306;28;19917;-77
2022/10/13 14:21:55;;;;;;;;;;;18.90;99.90;;;;;;5055463;28;19915;-77